Time;durP1;ratioP1;P1;durP2;ratioP2;P2;SDS_P1;SDS_P2;PMS_P1;PMS_P2;Temp;Humidity;BMP_temperature;BMP_pressure;BME280_temperature;BME280_humidity;BME280_pressure;Samples;Min_cycle;Max_cycle;Signal;HPM_P1;HPM_P2
2022/04/08 00:02:14;;;;;;;3.80;1.87;;;12.10;46.10;;;;;;20784;6816;117228;-73
2022/04/08 00:04:40;;;;;;;4.80;1.70;;;11.80;46.80;;;;;;20802;6816;119457;-74
2022/04/08 00:07:05;;;;;;;4.13;1.90;;;11.60;47.40;;;;;;20593;6816;281941;-75
2022/04/08 00:09:31;;;;;;;4.37;1.67;;;11.70;46.00;;;;;;20581;6816;291955;-72
2022/04/08 00:11:57;;;;;;;3.65;1.50;;;12.10;44.40;;;;;;20799;6816;120872;-72
2022/04/08 00:14:22;;;;;;;2.33;1.47;;;12.00;45.00;;;;;;20787;6816;117743;-74
2022/04/08 00:16:49;;;;;;;2.87;1.02;;;11.70;45.70;;;;;;20814;6815;119627;-72
2022/04/08 00:19:15;;;;;;;5.30;1.27;;;11.50;46.40;;;;;;20801;6816;117030;-73
2022/04/08 00:21:40;;;;;;;3.22;1.05;;;11.40;46.70;;;;;;20814;6816;117119;-72
2022/04/08 00:24:07;;;;;;;3.30;1.43;;;11.20;46.60;;;;;;20808;6816;117111;-72
2022/04/08 00:26:31;;;;;;;3.33;1.50;;;11.10;46.70;;;;;;20563;6816;336206;-73
2022/04/08 00:28:57;;;;;;;2.83;1.40;;;11.30;43.60;;;;;;20801;6816;118223;-75
2022/04/08 00:31:23;;;;;;;3.07;1.27;;;11.40;44.30;;;;;;20782;6816;117703;-72
2022/04/08 00:33:48;;;;;;;4.15;1.48;;;11.30;44.90;;;;;;20592;6816;297607;-73
2022/04/08 00:36:14;;;;;;;2.87;1.50;;;11.50;43.40;;;;;;20589;6816;277184;-75
2022/04/08 00:38:39;;;;;;;3.27;1.40;;;11.80;41.50;;;;;;20815;6816;118230;-72
2022/04/08 00:41:05;;;;;;;2.23;1.53;;;11.80;42.50;;;;;;20812;6816;120362;-72
2022/04/08 00:43:34;;;;;;;3.55;1.52;;;11.60;43.30;;;;;;20814;6816;117141;-73
2022/04/08 00:45:59;;;;;;;3.47;2.03;;;11.50;44.20;;;;;;20567;6816;307463;-73
2022/04/08 00:48:24;;;;;;;3.50;1.75;;;11.60;42.10;;;;;;20583;6816;278384;-73
2022/04/08 00:50:50;;;;;;;4.87;1.50;;;11.90;42.00;;;;;;20814;6816;117465;-72
2022/04/08 00:53:15;;;;;;;4.43;1.40;;;11.90;42.80;;;;;;20603;6816;280261;-73
2022/04/08 00:55:43;;;;;;;3.05;1.50;;;12.20;41.10;;;;;;20605;6816;278369;-72
2022/04/08 00:58:09;;;;;;;2.40;1.20;;;12.20;41.00;;;;;;20811;6816;117605;-74
2022/04/08 01:00:34;;;;;;;3.78;1.58;;;12.10;42.10;;;;;;20574;6816;307897;-73
2022/04/08 01:03:00;;;;;;;1.97;1.23;;;12.10;41.60;;;;;;20808;6816;117778;-72
2022/04/08 01:05:26;;;;;;;3.00;1.30;;;11.70;43.10;;;;;;20843;6816;117492;-72
2022/04/08 01:07:52;;;;;;;2.63;1.40;;;11.70;43.00;;;;;;20648;6816;294163;-73
2022/04/08 01:10:18;;;;;;;3.67;1.67;;;12.10;42.20;;;;;;20601;6816;306334;-71
2022/04/08 01:12:43;;;;;;;3.90;1.43;;;12.10;41.70;;;;;;20598;6816;278636;-73
2022/04/08 01:15:09;;;;;;;2.80;1.50;;;12.30;41.20;;;;;;20600;6816;307006;-74
2022/04/08 01:17:35;;;;;;;4.13;1.30;;;12.30;41.90;;;;;;20814;6816;118287;-75
2022/04/08 01:20:01;;;;;;;3.03;1.10;;;12.30;41.90;;;;;;20817;6816;117663;-72
2022/04/08 01:22:26;;;;;;;2.30;1.12;;;11.90;43.00;;;;;;20778;6816;118317;-73
2022/04/08 01:25:02;;;;;;;4.93;1.20;;;11.60;43.90;;;;;;20813;6816;117877;-73
2022/04/08 01:27:28;;;;;;;2.95;1.40;;;11.40;44.40;;;;;;20592;6816;336581;-72
2022/04/08 01:29:53;;;;;;;3.87;1.27;;;11.50;43.90;;;;;;20812;6815;116953;-72
2022/04/08 01:32:19;;;;;;;2.23;1.20;;;11.50;43.90;;;;;;20789;6816;117675;-74
2022/04/08 01:34:45;;;;;;;2.10;1.13;;;11.30;44.50;;;;;;20812;6816;117340;-74
2022/04/08 01:37:10;;;;;;;4.70;1.87;;;11.10;45.10;;;;;;20597;6816;336020;-72
2022/04/08 01:39:37;;;;;;;3.08;1.25;;;11.30;44.40;;;;;;20814;6816;117106;-75
2022/04/08 01:42:02;;;;;;;4.67;1.50;;;11.30;44.40;;;;;;20798;6816;122443;-73
2022/04/08 01:44:27;;;;;;;3.63;1.50;;;11.10;44.90;;;;;;20800;6816;120767;-72
2022/04/08 01:46:53;;;;;;;6.40;2.10;;;11.00;45.50;;;;;;20606;6816;312014;-73
2022/04/08 01:49:19;;;;;;;3.97;1.58;;;11.60;43.40;;;;;;20604;6816;309399;-72
2022/04/08 01:51:45;;;;;;;5.40;1.60;;;11.50;43.30;;;;;;20803;6816;118016;-74
2022/04/08 01:54:11;;;;;;;2.87;1.57;;;11.30;44.50;;;;;;20811;6816;118367;-74
2022/04/08 01:56:37;;;;;;;2.53;1.20;;;11.30;44.50;;;;;;20689;6816;117465;-74
2022/04/08 01:59:02;;;;;;;3.83;1.62;;;11.10;45.70;;;;;;20603;6816;282451;-72
2022/04/08 02:01:28;;;;;;;4.68;1.65;;;11.30;42.90;;;;;;20596;6816;336402;-72
2022/04/08 02:03:53;;;;;;;1.87;1.07;;;11.60;41.80;;;;;;20821;6816;117164;-75
2022/04/08 02:06:19;;;;;;;3.40;1.20;;;11.60;42.60;;;;;;20796;6816;118294;-72
2022/04/08 02:08:45;;;;;;;2.43;1.30;;;11.20;44.00;;;;;;20814;6816;117319;-72
2022/04/08 02:11:11;;;;;;;3.77;1.50;;;11.20;43.90;;;;;;20591;6816;307437;-72
2022/04/08 02:13:37;;;;;;;6.10;1.60;;;11.70;41.60;;;;;;20599;6816;306754;-72
2022/04/08 02:16:03;;;;;;;3.10;1.67;;;11.70;41.60;;;;;;20807;6816;117293;-75
2022/04/08 02:18:29;;;;;;;4.17;1.53;;;11.80;41.20;;;;;;20577;6816;281141;-71
2022/04/08 02:20:56;;;;;;;4.40;1.30;;;11.80;41.20;;;;;;20801;6816;117766;-72
2022/04/08 02:23:22;;;;;;;3.28;1.33;;;11.70;42.10;;;;;;20809;6816;118736;-74
2022/04/08 02:25:47;;;;;;;3.45;1.70;;;11.40;42.80;;;;;;20598;6816;307754;-73
2022/04/08 02:28:13;;;;;;;4.40;1.80;;;11.60;41.70;;;;;;20584;6816;308837;-72
2022/04/08 02:30:39;;;;;;;4.75;1.60;;;12.10;41.40;;;;;;20596;6816;281302;-72
2022/04/08 02:33:05;;;;;;;2.40;1.43;;;12.00;40.90;;;;;;20810;6816;117431;-74
2022/04/08 02:35:30;;;;;;;3.83;1.50;;;11.90;41.70;;;;;;20591;6816;311599;-74
2022/04/08 02:37:56;;;;;;;3.67;1.50;;;11.90;41.10;;;;;;20598;6816;284226;-72
2022/04/08 02:40:22;;;;;;;2.83;1.50;;;12.10;40.60;;;;;;20579;6815;336522;-72
2022/04/08 02:42:47;;;;;;;5.50;1.20;;;12.20;40.40;;;;;;20800;6816;117939;-76
2022/04/08 02:45:13;;;;;;;3.30;1.50;;;12.00;41.30;;;;;;20591;6816;336049;-72
2022/04/08 02:47:42;;;;;;;2.12;1.30;;;12.00;40.40;;;;;;20612;6816;277632;-72
2022/04/08 02:50:08;;;;;;;2.42;1.37;;;12.20;40.10;;;;;;20596;6816;306569;-74
2022/04/08 02:52:34;;;;;;;2.97;1.13;;;12.00;40.80;;;;;;20786;6816;118494;-75
2022/04/08 02:54:59;;;;;;;1.80;1.27;;;12.00;40.30;;;;;;20804;6816;117499;-72
2022/04/08 02:57:26;;;;;;;2.28;1.15;;;11.40;42.00;;;;;;20812;6816;117774;-74
2022/04/08 02:59:53;;;;;;;2.07;0.83;;;11.10;42.50;;;;;;20812;6816;118366;-73
2022/04/08 03:02:18;;;;;;;2.40;1.10;;;11.10;42.40;;;;;;20769;6816;119779;-72
2022/04/08 03:04:43;;;;;;;2.17;0.90;;;10.90;42.70;;;;;;20794;6816;118876;-74
2022/04/08 03:07:09;;;;;;;3.23;1.40;;;10.80;43.30;;;;;;20596;6816;306615;-72
2022/04/08 03:09:36;;;;;;;2.12;1.10;;;11.00;40.80;;;;;;20811;6816;117209;-75
2022/04/08 03:12:01;;;;;;;1.63;0.80;;;11.00;41.10;;;;;;20806;6816;118286;-72
2022/04/08 03:14:26;;;;;;;2.10;1.00;;;10.90;42.50;;;;;;20788;6816;121073;-72
2022/04/08 03:16:52;;;;;;;2.45;1.30;;;10.80;42.30;;;;;;20597;6816;278773;-74
2022/04/08 03:19:18;;;;;;;1.50;1.03;;;10.90;40.20;;;;;;20588;6816;306923;-72
2022/04/08 03:21:43;;;;;;;1.30;0.70;;;11.40;38.70;;;;;;20805;6816;117213;-73
2022/04/08 03:24:10;;;;;;;1.87;0.98;;;11.30;40.00;;;;;;20600;6816;277700;-73
2022/04/08 03:26:34;;;;;;;3.27;1.27;;;11.40;38.80;;;;;;20567;6816;311075;-72
2022/04/08 03:29:00;;;;;;;2.35;1.30;;;11.70;38.60;;;;;;20594;6816;306919;-73
2022/04/08 03:31:25;;;;;;;2.23;1.00;;;11.90;37.70;;;;;;20806;6816;118123;-72
2022/04/08 03:33:52;;;;;;;2.10;1.23;;;11.80;38.30;;;;;;20601;6816;336382;-70
2022/04/08 03:36:17;;;;;;;5.03;1.40;;;11.80;38.30;;;;;;20799;6816;118360;-70
2022/04/08 03:38:44;;;;;;;3.25;1.20;;;11.40;40.20;;;;;;20811;6816;115059;-73
2022/04/08 03:41:09;;;;;;;2.13;1.03;;;11.30;40.10;;;;;;20816;6816;117282;-71
2022/04/08 03:43:35;;;;;;;2.13;0.90;;;11.10;40.80;;;;;;20822;6816;117123;-68
2022/04/08 03:46:00;;;;;;;2.80;1.00;;;10.90;41.30;;;;;;20821;6816;116183;-67
2022/04/08 03:48:26;;;;;;;1.63;0.67;;;10.80;41.70;;;;;;20792;6816;118057;-67
2022/04/08 03:50:51;;;;;;;3.03;1.23;;;10.60;41.90;;;;;;20597;6816;340683;-67
2022/04/08 03:53:18;;;;;;;2.12;0.70;;;10.90;40.90;;;;;;20814;6815;118643;-67
2022/04/08 03:55:44;;;;;;;2.40;1.07;;;10.80;40.80;;;;;;20813;6816;117567;-67
2022/04/08 03:58:10;;;;;;;1.27;0.80;;;10.70;41.70;;;;;;20815;6816;116947;-67
2022/04/08 04:00:39;;;;;;;2.08;1.00;;;10.60;42.10;;;;;;20579;6816;308106;-67
2022/04/08 04:03:04;;;;;;;1.90;1.10;;;10.80;40.20;;;;;;20821;6816;117535;-67
2022/04/08 04:05:30;;;;;;;3.20;1.20;;;10.90;40.70;;;;;;20603;6816;310462;-67
2022/04/08 04:07:58;;;;;;;1.55;1.10;;;11.00;39.20;;;;;;20825;6816;117127;-67
2022/04/08 04:10:21;;;;;;;2.43;1.27;;;11.00;39.90;;;;;;20578;6816;311227;-67
2022/04/08 04:12:46;;;;;;;2.05;1.20;;;11.10;39.10;;;;;;20585;6816;307045;-67
2022/04/08 04:15:13;;;;;;;2.65;1.40;;;11.40;38.60;;;;;;20606;6816;278759;-68
2022/04/08 04:17:38;;;;;;;2.40;1.12;;;11.50;39.20;;;;;;20809;6816;119216;-68
2022/04/08 04:20:04;;;;;;;3.37;1.40;;;11.50;39.20;;;;;;20600;6816;306619;-67
2022/04/08 04:22:30;;;;;;;2.60;1.10;;;11.50;38.20;;;;;;20793;6816;117845;-67
2022/04/08 04:24:56;;;;;;;2.10;1.10;;;11.10;39.70;;;;;;20819;6816;118062;-66
2022/04/08 04:27:22;;;;;;;1.07;0.70;;;11.10;39.70;;;;;;20816;6816;118391;-68
2022/04/08 04:29:47;;;;;;;4.80;1.10;;;10.90;40.40;;;;;;20815;6816;118338;-67
2022/04/08 04:32:14;;;;;;;2.78;1.20;;;10.60;41.50;;;;;;20797;6816;117913;-68
2022/04/08 04:34:39;;;;;;;2.47;1.10;;;10.60;41.50;;;;;;20816;6816;118077;-68
2022/04/08 04:37:08;;;;;;;2.65;1.05;;;10.40;42.00;;;;;;20823;6816;117631;-67
2022/04/08 04:39:31;;;;;;;1.40;0.87;;;10.40;42.00;;;;;;20800;6816;118136;-67
2022/04/08 04:41:57;;;;;;;2.62;1.10;;;10.30;42.20;;;;;;20599;6816;306754;-66
2022/04/08 04:44:22;;;;;;;1.85;1.05;;;10.60;41.30;;;;;;20796;6816;131267;-65
2022/04/08 04:46:48;;;;;;;3.58;1.10;;;10.70;41.60;;;;;;20597;6816;341734;-65
2022/04/08 04:49:14;;;;;;;2.55;0.93;;;10.90;40.80;;;;;;20817;6816;120961;-66
2022/04/08 04:51:42;;;;;;;3.07;1.23;;;10.90;40.80;;;;;;20810;6816;117071;-67
2022/04/08 04:54:08;;;;;;;3.93;1.03;;;10.80;41.40;;;;;;20813;6816;118700;-67
2022/04/08 04:56:34;;;;;;;3.83;1.13;;;10.50;42.20;;;;;;20780;6816;117715;-65
2022/04/08 04:59:00;;;;;;;2.63;0.90;;;10.60;42.30;;;;;;20814;6816;118275;-65
2022/04/08 05:01:25;;;;;;;1.50;0.88;;;10.50;42.60;;;;;;20807;6816;117059;-65
2022/04/08 05:03:52;;;;;;;3.53;1.20;;;10.40;42.90;;;;;;20816;6815;117009;-65
2022/04/08 05:06:18;;;;;;;2.73;1.43;;;10.40;43.10;;;;;;20788;6816;120835;-65
2022/04/08 05:08:45;;;;;;;3.10;1.40;;;10.30;43.30;;;;;;20602;6816;278028;-66
2022/04/08 05:11:10;;;;;;;2.67;1.10;;;10.60;42.20;;;;;;20808;6816;118227;-67
2022/04/08 05:13:37;;;;;;;2.20;1.15;;;10.70;42.50;;;;;;20793;6816;118030;-72
2022/04/08 05:16:03;;;;;;;2.65;1.20;;;10.60;43.00;;;;;;20595;6816;306498;-70
2022/04/08 05:18:29;;;;;;;1.93;1.10;;;10.80;43.10;;;;;;20770;6816;117915;-69
2022/04/08 05:20:55;;;;;;;2.43;0.90;;;10.80;43.90;;;;;;20812;6816;117136;-68
2022/04/08 05:23:20;;;;;;;4.37;1.30;;;10.80;43.90;;;;;;20593;6816;306594;-68
2022/04/08 05:25:46;;;;;;;4.10;1.43;;;10.90;44.10;;;;;;20821;6816;117595;-69
2022/04/08 05:28:12;;;;;;;2.78;1.40;;;10.90;44.40;;;;;;20587;6816;336896;-70
2022/04/08 05:30:37;;;;;;;3.17;1.40;;;11.10;44.90;;;;;;20573;6816;307477;-71
2022/04/08 05:33:03;;;;;;;3.58;1.90;;;11.40;44.90;;;;;;20795;6816;117560;-66
2022/04/08 05:35:28;;;;;;;3.33;1.63;;;11.30;45.00;;;;;;20597;6816;278898;-66
2022/04/08 05:37:54;;;;;;;3.50;1.60;;;11.40;45.90;;;;;;20796;6816;117508;-67
2022/04/08 05:40:21;;;;;;;2.73;1.70;;;11.30;46.00;;;;;;20571;6816;307556;-66
2022/04/08 05:42:46;;;;;;;4.57;1.67;;;11.30;47.10;;;;;;20802;6816;118072;-67
2022/04/08 05:45:10;;;;;;;3.37;1.70;;;11.20;47.00;;;;;;20572;6816;297762;-67
2022/04/08 05:47:36;;;;;;;3.40;1.62;;;11.30;47.90;;;;;;20793;6816;117920;-67
2022/04/08 05:50:02;;;;;;;2.93;1.53;;;10.90;48.80;;;;;;20796;6816;118015;-67
2022/04/08 05:52:28;;;;;;;2.78;1.60;;;10.90;48.10;;;;;;20546;6816;330441;-68
2022/04/08 05:54:53;;;;;;;2.47;1.45;;;10.90;48.10;;;;;;20598;6816;306656;-67
2022/04/08 05:57:23;;;;;;;3.35;1.17;;;11.20;47.60;;;;;;20823;6816;117727;-67
2022/04/08 05:59:48;;;;;;;3.40;1.20;;;10.80;48.90;;;;;;20809;6816;118381;-67
2022/04/08 06:02:14;;;;;;;2.10;1.17;;;10.80;48.20;;;;;;20560;6816;298114;-67
2022/04/08 06:04:40;;;;;;;2.60;1.30;;;10.80;47.60;;;;;;20571;6816;277133;-67
2022/04/08 06:07:05;;;;;;;2.62;1.37;;;11.10;46.90;;;;;;20788;6816;117388;-67
2022/04/08 06:09:32;;;;;;;2.10;1.20;;;11.00;46.90;;;;;;20774;6816;118270;-67
2022/04/08 06:11:57;;;;;;;2.70;1.10;;;10.70;47.30;;;;;;20588;6816;310765;-65
2022/04/08 06:14:22;;;;;;;0.90;0.90;;;10.70;46.80;;;;;;20789;6815;117556;-67
2022/04/08 06:16:48;;;;;;;2.00;1.00;;;10.70;47.10;;;;;;20814;6815;123574;-67
2022/04/08 06:19:13;;;;;;;2.25;1.40;;;10.50;47.70;;;;;;20816;6816;120905;-67
2022/04/08 06:21:39;;;;;;;3.90;1.33;;;10.30;48.30;;;;;;20605;6816;307019;-67
2022/04/08 06:24:05;;;;;;;3.67;1.60;;;10.80;50.50;;;;;;20601;6816;311634;-66
2022/04/08 06:26:34;;;;;;;2.37;1.55;;;10.80;50.00;;;;;;20578;6816;340936;-67
2022/04/08 06:28:58;;;;;;;2.80;1.30;;;11.10;49.00;;;;;;20598;6816;283393;-67
2022/04/08 06:31:24;;;;;;;3.20;1.20;;;11.20;48.10;;;;;;20595;6816;306972;-67
2022/04/08 06:33:49;;;;;;;3.53;1.00;;;11.10;47.60;;;;;;20807;6816;117388;-67
2022/04/08 06:36:14;;;;;;;3.13;0.90;;;11.10;47.60;;;;;;20796;6816;117837;-67
2022/04/08 06:38:40;;;;;;;2.15;1.20;;;10.70;48.20;;;;;;20604;6816;306820;-66
2022/04/08 06:41:06;;;;;;;1.90;1.10;;;10.90;48.20;;;;;;20598;6816;303142;-67
2022/04/08 06:43:32;;;;;;;1.73;0.90;;;10.90;48.10;;;;;;20600;6816;281541;-67
2022/04/08 06:45:57;;;;;;;1.42;0.95;;;11.10;47.60;;;;;;20817;6816;117977;-67
2022/04/08 06:48:23;;;;;;;1.40;0.80;;;10.80;47.80;;;;;;20794;6816;118277;-67
2022/04/08 06:50:48;;;;;;;1.45;0.95;;;10.50;48.60;;;;;;20604;6816;324299;-67
2022/04/08 06:53:15;;;;;;;2.58;1.25;;;10.40;49.60;;;;;;20812;6816;117239;-67
2022/04/08 06:55:40;;;;;;;1.27;0.90;;;10.40;49.10;;;;;;20813;6816;117961;-67
2022/04/08 06:58:06;;;;;;;2.57;0.80;;;10.10;49.50;;;;;;20803;6816;117947;-67
2022/04/08 07:00:34;;;;;;;1.27;0.90;;;9.90;50.90;;;;;;20583;6816;314893;-67
2022/04/08 07:03:00;;;;;;;1.93;0.70;;;10.00;50.20;;;;;;20812;6816;118237;-67
2022/04/08 07:05:25;;;;;;;1.15;0.82;;;10.00;50.20;;;;;;20604;6816;278145;-67
2022/04/08 07:07:51;;;;;;;1.10;0.70;;;10.20;50.90;;;;;;20819;6816;117429;-67
2022/04/08 07:10:17;;;;;;;3.00;1.00;;;10.20;50.70;;;;;;20797;6816;122914;-67
2022/04/08 07:12:44;;;;;;;3.17;1.15;;;10.00;50.90;;;;;;20595;6816;285183;-67
2022/04/08 07:15:10;;;;;;;2.50;1.40;;;10.10;51.40;;;;;;20594;6816;338856;-67
2022/04/08 07:17:35;;;;;;;1.87;1.20;;;10.40;51.50;;;;;;20815;6816;117255;-67
2022/04/08 07:20:01;;;;;;;6.25;3.95;;;10.40;52.00;;;;;;20592;6816;340888;-66
2022/04/08 07:22:27;;;;;;;2.13;2.00;;;10.50;51.30;;;;;;20785;6816;118387;-67
2022/04/08 07:24:52;;;;;;;2.37;1.90;;;10.40;51.30;;;;;;20807;6816;118108;-67
2022/04/08 07:27:18;;;;;;;2.33;1.40;;;10.30;51.80;;;;;;20805;6814;117279;-67
2022/04/08 07:29:43;;;;;;;2.33;1.30;;;10.10;52.10;;;;;;20808;6816;118673;-66
2022/04/08 07:32:10;;;;;;;3.53;2.12;;;9.90;53.60;;;;;;20798;6816;121830;-67
2022/04/08 07:34:39;;;;;;;2.20;2.00;;;9.90;53.60;;;;;;20792;6816;118207;-67
2022/04/08 07:37:05;;;;;;;2.65;1.75;;;10.20;52.90;;;;;;20601;6816;306490;-67
2022/04/08 07:39:32;;;;;;;2.43;2.20;;;10.10;52.80;;;;;;20599;6816;312175;-67
2022/04/08 07:41:58;;;;;;;1.37;0.87;;;10.60;53.30;;;;;;20810;6816;117477;-67
2022/04/08 07:44:23;;;;;;;1.80;1.40;;;10.60;52.90;;;;;;20580;6816;306772;-67
2022/04/08 07:46:49;;;;;;;1.27;1.00;;;10.80;52.70;;;;;;20815;6816;118564;-67
2022/04/08 07:49:16;;;;;;;2.07;0.97;;;10.60;52.60;;;;;;20818;6816;117492;-68
2022/04/08 07:51:42;;;;;;;3.13;2.13;;;10.60;52.80;;;;;;20815;6816;121012;-67
2022/04/08 07:54:08;;;;;;;2.65;1.30;;;10.70;53.60;;;;;;20598;6816;278045;-67
2022/04/08 07:56:35;;;;;;;1.13;1.00;;;10.60;53.50;;;;;;20791;6816;117475;-67
2022/04/08 07:58:59;;;;;;;2.70;1.62;;;10.80;53.40;;;;;;20590;6816;313419;-68
2022/04/08 08:01:26;;;;;;;2.03;1.12;;;10.90;53.40;;;;;;20598;6816;336849;-68
2022/04/08 08:03:51;;;;;;;2.10;1.00;;;11.30;52.30;;;;;;20813;6816;117245;-67
2022/04/08 08:06:17;;;;;;;1.55;1.10;;;11.10;52.90;;;;;;20797;6816;117695;-67
2022/04/08 08:08:44;;;;;;;2.33;1.23;;;11.10;52.80;;;;;;20601;6816;306537;-67
2022/04/08 08:11:11;;;;;;;1.85;1.30;;;11.20;53.10;;;;;;20801;6816;118547;-67
2022/04/08 08:13:35;;;;;;;2.10;1.10;;;11.30;53.30;;;;;;20803;6816;117667;-67
2022/04/08 08:16:02;;;;;;;2.07;1.20;;;11.10;54.10;;;;;;20808;6816;117148;-69
2022/04/08 08:18:28;;;;;;;1.23;1.13;;;11.00;54.00;;;;;;20789;6816;118125;-67
2022/04/08 08:20:53;;;;;;;2.70;1.62;;;11.00;54.40;;;;;;20596;6816;280366;-67
2022/04/08 08:23:20;;;;;;;2.10;1.52;;;11.20;53.70;;;;;;20604;6816;279547;-67
2022/04/08 08:25:45;;;;;;;3.03;1.55;;;11.60;53.20;;;;;;20601;6816;339913;-67
2022/04/08 08:28:11;;;;;;;2.37;1.60;;;11.80;52.60;;;;;;20603;6816;324964;-68
2022/04/08 08:30:38;;;;;;;1.85;1.50;;;12.00;52.40;;;;;;20816;6816;117765;-67
2022/04/08 08:33:04;;;;;;;3.05;1.35;;;11.90;52.10;;;;;;20812;6816;117091;-67
2022/04/08 08:35:27;;;;;;;2.05;1.25;;;11.60;52.80;;;;;;20594;6816;340422;-67
2022/04/08 08:37:53;;;;;;;3.00;1.30;;;11.60;51.70;;;;;;20816;6815;120962;-67
2022/04/08 08:40:19;;;;;;;1.40;1.23;;;11.60;51.90;;;;;;20799;6816;118358;-67
2022/04/08 08:42:46;;;;;;;1.75;1.12;;;11.30;52.60;;;;;;20806;6816;117522;-68
2022/04/08 08:45:11;;;;;;;2.17;1.60;;;11.10;52.90;;;;;;20599;6816;341064;-67
2022/04/08 08:47:37;;;;;;;2.07;1.20;;;11.20;53.40;;;;;;20806;6816;118788;-67
2022/04/08 08:50:03;;;;;;;1.50;0.83;;;11.20;53.40;;;;;;20793;6816;117610;-66
2022/04/08 08:52:28;;;;;;;2.00;1.17;;;11.10;53.50;;;;;;20575;6816;306784;-71
2022/04/08 08:54:54;;;;;;;1.20;1.10;;;11.20;54.50;;;;;;20811;6816;117749;-68
2022/04/08 08:57:19;;;;;;;1.40;1.00;;;11.20;54.50;;;;;;20819;6816;117138;-69
2022/04/08 08:59:45;;;;;;;1.15;1.00;;;11.00;54.90;;;;;;20816;6816;117153;-67
2022/04/08 09:02:10;;;;;;;2.03;1.20;;;10.90;55.20;;;;;;20603;6816;306869;-71
2022/04/08 09:04:40;;;;;;;1.67;1.07;;;11.10;54.40;;;;;;20790;6816;118865;-70
2022/04/08 09:07:06;;;;;;;1.70;1.43;;;11.10;54.20;;;;;;20593;6816;307892;-72
2022/04/08 09:09:31;;;;;;;1.65;1.40;;;11.30;55.10;;;;;;20593;6816;281569;-74
2022/04/08 09:12:13;;;;;;;1.98;1.33;;;11.70;54.50;;;;;;20805;6816;123459;-72
2022/04/08 09:14:40;;;;;;;2.33;1.20;;;11.60;54.90;;;;;;20808;6816;117701;-75
2022/04/08 09:17:05;;;;;;;1.33;1.07;;;11.60;54.80;;;;;;20578;6816;282729;-72
2022/04/08 09:19:32;;;;;;;1.25;1.08;;;12.10;52.50;;;;;;20603;6816;282102;-72
2022/04/08 09:21:57;;;;;;;1.23;1.05;;;12.40;51.90;;;;;;20591;6816;277190;-74
2022/04/08 09:24:23;;;;;;;1.30;1.20;;;12.40;51.90;;;;;;20578;6816;311535;-72
2022/04/08 09:26:52;;;;;;;3.60;2.83;;;12.60;51.60;;;;;;20802;6816;117364;-72
2022/04/08 09:29:21;;;;;;;1.37;1.23;;;12.60;51.60;;;;;;20801;6816;117876;-74
2022/04/08 09:31:47;;;;;;;1.00;0.90;;;12.40;52.50;;;;;;20803;6816;117576;-77
2022/04/08 09:34:12;;;;;;;0.68;0.62;;;12.20;53.30;;;;;;20575;6816;291368;-73
2022/04/08 09:36:38;;;;;;;1.50;0.50;;;12.30;52.70;;;;;;20810;6816;121887;-74
2022/04/08 09:39:07;;;;;;;1.27;1.10;;;12.20;52.50;;;;;;20596;6816;277748;-75
2022/04/08 09:41:37;;;;;;;1.50;1.40;;;12.40;50.60;;;;;;20586;6816;307410;-73
2022/04/08 09:44:02;;;;;;;1.67;1.37;;;12.80;50.30;;;;;;20589;6816;282221;-74
2022/04/08 09:46:28;;;;;;;1.87;1.00;;;12.70;50.20;;;;;;20568;6816;341483;-73
2022/04/08 09:48:53;;;;;;;0.80;0.60;;;12.90;50.80;;;;;;20806;6816;117815;-72
2022/04/08 09:51:23;;;;;;;0.77;0.77;;;12.70;51.20;;;;;;20608;6815;306530;-69
2022/04/08 09:53:58;;;;;;;1.30;1.20;;;12.70;50.20;;;;;;20603;6816;306020;-70
2022/04/08 09:56:25;;;;;;;1.20;0.90;;;12.90;49.20;;;;;;20794;6816;118220;-73
2022/04/08 09:58:57;;;;;;;0.83;0.83;;;12.70;49.90;;;;;;20818;6816;118728;-72
2022/04/08 10:01:24;;;;;;;1.00;0.90;;;12.50;50.90;;;;;;20577;6816;279221;-71
2022/04/08 10:03:48;;;;;;;2.03;0.97;;;12.40;50.80;;;;;;20807;6816;123345;-72
2022/04/08 10:06:14;;;;;;;1.20;1.13;;;12.40;50.80;;;;;;20559;6816;306645;-72
2022/04/08 10:08:39;;;;;;;0.80;0.80;;;12.50;51.20;;;;;;20817;6816;120197;-72
2022/04/08 10:11:14;;;;;;;1.60;1.50;;;12.30;51.30;;;;;;20594;6816;336261;-71
2022/04/08 10:14:00;;;;;;;2.67;2.47;;;12.30;50.00;;;;;;20720;6816;117620;-73
2022/04/08 10:16:26;;;;;;;1.33;1.30;;;12.10;50.40;;;;;;20356;6816;312070;-74
2022/04/08 10:18:54;;;;;;;1.00;1.00;;;12.10;50.40;;;;;;20809;6816;117375;-71
2022/04/08 10:21:17;;;;;;;1.00;1.00;;;11.90;50.70;;;;;;20818;6816;117197;-73
2022/04/08 10:23:53;;;;;;;1.30;1.30;;;11.50;51.50;;;;;;20825;6816;117682;-75
2022/04/08 10:26:19;;;;;;;1.13;0.93;;;11.20;52.30;;;;;;20794;6816;117446;-77
2022/04/08 10:28:44;;;;;;;1.10;1.10;;;10.90;53.20;;;;;;20769;6816;119439;-79
2022/04/08 10:31:14;;;;;;;1.10;1.00;;;10.50;54.30;;;;;;20774;6816;117282;-76
2022/04/08 10:33:39;;;;;;;1.60;1.50;;;10.50;54.30;;;;;;20794;6816;117177;-75
2022/04/08 10:36:07;;;;;;;1.40;1.30;;;10.40;55.10;;;;;;20576;6816;277936;-78
2022/04/08 10:38:34;;;;;;;4.10;3.10;;;10.60;55.80;;;;;;20577;6816;427715;-66
2022/04/08 10:41:00;;;;;;;5.23;4.73;;;10.90;55.20;;;;;;20585;6816;302429;-68
2022/04/08 10:43:26;;;;;;;1.80;1.70;;;11.30;54.50;;;;;;20586;6816;307338;-70
2022/04/08 10:45:56;;;;;;;1.70;1.60;;;11.30;54.50;;;;;;20583;6816;278381;-69
2022/04/08 10:48:21;;;;;;;2.20;2.10;;;11.40;54.60;;;;;;20576;6816;307500;-72
2022/04/08 10:50:46;;;;;;;3.53;2.75;;;11.40;54.50;;;;;;20593;6816;307406;-69
2022/04/08 10:53:12;;;;;;;2.50;2.40;;;11.40;54.50;;;;;;20604;6816;277745;-73
2022/04/08 10:55:47;;;;;;;2.28;2.17;;;11.40;55.00;;;;;;20592;6816;311856;-72
2022/04/08 10:58:13;;;;;;;2.40;2.30;;;11.40;55.50;;;;;;20577;6816;307373;-76
2022/04/08 11:00:38;;;;;;;5.87;5.57;;;11.50;56.00;;;;;;20589;6816;306600;-75
2022/04/08 11:03:03;;;;;;;2.90;2.70;;;11.50;55.80;;;;;;20597;6815;326795;-77
2022/04/08 11:05:29;;;;;;;2.87;2.67;;;11.50;56.00;;;;;;20817;6816;117117;-74
2022/04/08 11:07:58;;;;;;;2.42;2.22;;;11.10;56.00;;;;;;20811;6816;118354;-80
2022/04/08 11:10:23;;;;;;;2.30;1.93;;;10.70;57.70;;;;;;20805;6816;127195;-80
2022/04/08 11:12:49;;;;;;;2.08;1.98;;;10.40;58.90;;;;;;20855;6816;116723;-86
2022/04/08 11:15:15;;;;;;;2.22;2.12;;;10.10;59.40;;;;;;20878;6816;122395;-79
2022/04/08 11:17:41;;;;;;;3.45;1.92;;;9.70;61.50;;;;;;20806;6816;71055;-77
2022/04/08 11:20:06;;;;;;;2.40;2.30;;;9.70;61.50;;;;;;20808;6816;116709;-74
2022/04/08 11:22:40;;;;;;;3.00;2.80;;;9.60;62.00;;;;;;20541;6816;332656;-76
2022/04/08 11:25:06;;;;;;;4.20;3.43;;;9.90;61.50;;;;;;20765;6816;117387;-74
2022/04/08 11:27:32;;;;;;;3.10;2.90;;;9.90;61.50;;;;;;20597;6816;306882;-73
2022/04/08 11:29:57;;;;;;;2.60;2.27;;;10.10;61.00;;;;;;20794;6816;117080;-75
2022/04/08 11:32:24;;;;;;;2.63;2.40;;;9.90;62.10;;;;;;20791;6816;117237;-74
2022/04/08 11:34:50;;;;;;;2.20;2.10;;;9.90;62.10;;;;;;20788;6816;118269;-72
2022/04/08 11:37:16;;;;;;;2.20;2.10;;;9.60;63.10;;;;;;20793;6816;116931;-79
2022/04/08 11:39:41;;;;;;;1.97;1.87;;;9.60;63.10;;;;;;20774;6816;117455;-73
2022/04/08 11:42:07;;;;;;;3.27;2.73;;;9.40;63.40;;;;;;20801;6816;117558;-75
2022/04/08 11:44:33;;;;;;;2.87;2.67;;;9.60;65.40;;;;;;20577;6816;317422;-73
2022/04/08 11:47:06;;;;;;;2.30;2.20;;;9.60;65.10;;;;;;20807;6816;117017;-71
2022/04/08 11:49:32;;;;;;;2.03;1.90;;;9.70;63.90;;;;;;20806;6816;117420;-76
2022/04/08 11:52:03;;;;;;;2.00;1.90;;;9.50;63.90;;;;;;20804;6816;117505;-77
2022/04/08 11:54:29;;;;;;;2.43;2.23;;;9.40;64.40;;;;;;20788;6816;117065;-77
2022/04/08 11:56:54;;;;;;;2.10;2.00;;;9.30;64.80;;;;;;20792;6816;117171;-76
2022/04/08 11:59:20;;;;;;;2.22;2.12;;;9.20;65.10;;;;;;20806;6816;117443;-79
2022/04/08 12:01:45;;;;;;;2.37;2.23;;;9.10;65.50;;;;;;20806;6816;117061;-76
2022/04/08 12:04:11;;;;;;;4.65;2.55;;;9.00;65.90;;;;;;20809;6816;117411;-78
2022/04/08 12:06:42;;;;;;;3.50;2.63;;;9.00;66.60;;;;;;20790;6816;118260;-78
2022/04/08 12:09:08;;;;;;;3.30;3.00;;;9.00;66.70;;;;;;20568;6816;299544;-80
2022/04/08 12:11:36;;;;;;;4.05;2.40;;;9.50;65.70;;;;;;20817;6816;117097;-80
2022/04/08 12:14:00;;;;;;;2.77;2.57;;;9.50;65.70;;;;;;20807;6815;116966;-79
2022/04/08 12:16:27;;;;;;;3.70;3.40;;;9.50;65.90;;;;;;20575;6816;307052;-80
2022/04/08 12:18:53;;;;;;;3.40;3.20;;;9.60;66.10;;;;;;20575;6816;337941;-79
2022/04/08 12:21:22;;;;;;;3.87;3.50;;;10.00;63.30;;;;;;20596;6816;277358;-77
2022/04/08 12:23:50;;;;;;;3.97;3.77;;;10.30;61.90;;;;;;20567;6816;286974;-80
2022/04/08 12:26:19;;;;;;;3.45;3.25;;;10.50;61.10;;;;;;20567;6816;307439;-85
2022/04/08 12:28:46;;;;;;;3.95;3.65;;;10.70;60.60;;;;;;20600;6816;336235;-78
2022/04/08 12:31:15;;;;;;;3.20;3.10;;;10.80;60.20;;;;;;20804;6816;117183;-78
2022/04/08 12:33:40;;;;;;;5.63;3.60;;;10.60;60.40;;;;;;20592;6816;281595;-78